createdAt,value
2023-04-06T00:00:15.328Z,3.25
2023-04-06T00:03:21.580Z,3.20
2023-04-06T00:06:28.017Z,3.46
2023-04-06T00:09:34.137Z,3.30
2023-04-06T00:12:41.960Z,3.42
2023-04-06T00:15:48.310Z,3.29
2023-04-06T00:18:54.660Z,3.39
2023-04-06T00:22:01.066Z,3.39
2023-04-06T00:25:07.959Z,3.23
2023-04-06T00:28:15.657Z,3.39
2023-04-06T00:31:21.996Z,3.29
2023-04-06T00:34:28.484Z,3.06
2023-04-06T00:37:35.037Z,3.27
2023-04-06T00:40:41.463Z,3.15
2023-04-06T00:43:49.305Z,3.33
2023-04-06T00:46:55.866Z,3.69
2023-04-06T00:50:02.380Z,3.41
2023-04-06T00:53:08.422Z,3.41
2023-04-06T00:56:14.351Z,3.06
2023-04-06T00:59:22.092Z,3.14
2023-04-06T01:02:28.434Z,3.14
2023-04-06T01:05:36.276Z,2.95
2023-04-06T01:08:42.728Z,3.14
2023-04-06T01:11:48.715Z,2.93
2023-04-06T01:14:56.229Z,3.10
2023-04-06T01:18:02.271Z,3.16
2023-04-06T01:21:09.766Z,2.91
2023-04-06T01:24:17.512Z,3.01
2023-04-06T01:27:23.525Z,2.85
2023-04-06T01:30:29.580Z,2.59
2023-04-06T01:33:36.440Z,2.94
2023-04-06T01:36:42.707Z,2.49
2023-04-06T01:39:50.274Z,2.99
2023-04-06T01:42:56.427Z,3.02
2023-04-06T01:46:03.024Z,2.35
2023-04-06T01:49:09.776Z,2.46
2023-04-06T01:52:16.892Z,2.54
2023-04-06T01:55:24.635Z,2.58
2023-04-06T01:58:30.688Z,2.78
2023-04-06T02:01:37.009Z,2.73
2023-04-06T02:04:43.281Z,2.82
2023-04-06T02:07:50.197Z,2.38
2023-04-06T02:10:58.235Z,2.24
2023-04-06T02:14:04.231Z,2.52
2023-04-06T02:17:10.464Z,2.73
2023-04-06T02:20:16.878Z,2.62
2023-04-06T02:23:22.973Z,2.63
2023-04-06T02:26:30.962Z,2.98
2023-04-06T02:29:37.524Z,2.73
2023-04-06T02:32:43.621Z,2.95
2023-04-06T02:35:49.723Z,2.50
2023-04-06T02:38:55.692Z,2.72
2023-04-06T02:42:04.612Z,2.60
2023-04-06T02:45:11.129Z,2.64
2023-04-06T02:48:17.519Z,2.63
2023-04-06T02:51:23.909Z,2.71
2023-04-06T02:54:30.105Z,2.34
2023-04-06T02:57:37.377Z,2.08
2023-04-06T03:00:43.673Z,1.85
2023-04-06T03:03:49.776Z,2.17
2023-04-06T03:06:58.718Z,1.99
2023-04-06T03:10:06.777Z,1.93
2023-04-06T03:13:14.613Z,2.04
2023-04-06T03:16:20.823Z,1.63
2023-04-06T03:19:26.815Z,1.76
2023-04-06T03:22:33.258Z,1.60
2023-04-06T03:25:40.702Z,1.74
2023-04-06T03:28:48.621Z,1.82
2023-04-06T03:31:54.827Z,1.85
2023-04-06T03:35:01.363Z,1.74
2023-04-06T03:38:07.524Z,1.57
2023-04-06T03:41:14.042Z,1.58
2023-04-06T03:44:22.064Z,1.65
2023-04-06T03:47:28.283Z,1.60
2023-04-06T03:50:34.420Z,1.60
2023-04-06T03:53:40.550Z,1.59
2023-04-06T03:56:46.776Z,1.71
2023-04-06T03:59:54.109Z,1.77
2023-04-06T04:03:00.197Z,1.73
2023-04-06T04:06:06.903Z,1.50
2023-04-06T04:09:13.162Z,1.67
2023-04-06T04:12:19.472Z,1.51
2023-04-06T04:15:26.975Z,1.82
2023-04-06T04:18:33.227Z,1.70
2023-04-06T04:21:46.203Z,1.65
2023-04-06T04:24:52.486Z,1.57
2023-04-06T04:27:58.969Z,1.78
2023-04-06T04:31:06.819Z,1.67
2023-04-06T04:34:13.272Z,1.86
2023-04-06T04:37:19.315Z,1.73
2023-04-06T04:40:25.621Z,1.90
2023-04-06T04:43:32.879Z,1.90
2023-04-06T04:46:42.573Z,1.89
2023-04-06T04:49:48.528Z,2.13
2023-04-06T04:52:54.822Z,1.62
2023-04-06T04:56:01.168Z,2.18
2023-04-06T04:59:07.737Z,2.21
2023-04-06T05:02:15.956Z,2.56
2023-04-06T05:05:22.523Z,2.62
2023-04-06T05:08:28.747Z,3.11
2023-04-06T05:11:35.304Z,3.25
2023-04-06T05:14:42.581Z,3.44
2023-04-06T05:17:50.461Z,3.97
2023-04-06T05:20:57.557Z,3.60
2023-04-06T05:24:04.558Z,3.49
2023-04-06T05:27:11.019Z,3.86
2023-04-06T05:30:17.577Z,4.07
2023-04-06T05:33:26.212Z,3.83
2023-04-06T05:36:33.317Z,4.06
2023-04-06T05:39:39.879Z,3.97
2023-04-06T05:42:46.176Z,4.56
2023-04-06T05:45:52.375Z,4.30
2023-04-06T05:49:00.116Z,4.24
2023-04-06T05:52:06.909Z,4.68
2023-04-06T05:55:13.824Z,4.53
2023-04-06T05:58:20.250Z,4.48
2023-04-06T06:01:26.412Z,4.87
2023-04-06T06:04:34.353Z,4.11
2023-04-06T06:07:40.641Z,4.71
2023-04-06T06:10:46.849Z,4.29
2023-04-06T06:13:53.310Z,4.79
2023-04-06T06:16:59.780Z,5.33
2023-04-06T06:20:08.837Z,4.59
2023-04-06T06:23:15.249Z,4.83
2023-04-06T06:26:21.433Z,4.85
2023-04-06T06:29:27.919Z,5.17
2023-04-06T06:32:34.683Z,4.74
2023-04-06T06:35:42.626Z,4.28
2023-04-06T06:38:49.252Z,4.15
2023-04-06T06:41:56.424Z,3.81
2023-04-06T06:45:03.074Z,4.06
2023-04-06T06:48:09.713Z,3.98
2023-04-06T06:51:17.216Z,3.95
2023-04-06T06:54:23.285Z,4.83
2023-04-06T06:57:30.790Z,5.03
2023-04-06T07:00:37.026Z,5.71
2023-04-06T07:03:43.511Z,4.64
2023-04-06T07:06:51.677Z,4.21
2023-04-06T07:09:57.816Z,4.52
2023-04-06T07:13:04.282Z,4.37
2023-04-06T07:16:11.041Z,5.09
2023-04-06T07:19:16.944Z,4.57
2023-04-06T07:22:24.530Z,5.19
2023-04-06T07:25:31.425Z,5.89
2023-04-06T07:28:37.489Z,5.55
2023-04-06T07:31:43.691Z,5.92
2023-04-06T07:34:49.886Z,5.91
2023-04-06T07:37:57.607Z,5.83
2023-04-06T07:41:05.113Z,5.99
2023-04-06T07:44:11.673Z,6.56
2023-04-06T07:47:18.399Z,6.79
2023-04-06T07:50:25.009Z,6.56
2023-04-06T07:53:33.126Z,7.47
2023-04-06T07:56:39.298Z,7.50
2023-04-06T07:59:46.086Z,6.78
2023-04-06T08:02:56.101Z,6.82
2023-04-06T08:06:03.501Z,7.33
2023-04-06T08:09:11.228Z,6.97
2023-04-06T08:12:17.552Z,7.05
2023-04-06T08:15:23.936Z,8.35
2023-04-06T08:18:31.137Z,8.08
2023-04-06T08:21:37.487Z,8.50
2023-04-06T08:24:45.375Z,8.28
2023-04-06T08:27:52.037Z,8.25
2023-04-06T08:30:58.683Z,7.78
2023-04-06T08:34:06.930Z,8.93
2023-04-06T08:37:13.491Z,9.26
2023-04-06T08:40:21.771Z,8.69
2023-04-06T08:43:29.747Z,8.53
2023-04-06T08:46:36.392Z,9.06
2023-04-06T08:49:44.282Z,8.19
2023-04-06T08:52:51.249Z,8.67
2023-04-06T08:56:01.705Z,8.37
2023-04-06T08:59:09.713Z,8.16
2023-04-06T09:02:20.062Z,7.97
2023-04-06T09:05:27.568Z,9.16
2023-04-06T09:08:34.736Z,9.42
2023-04-06T09:11:51.595Z,8.60
2023-04-06T09:14:58.969Z,7.94
2023-04-06T09:18:05.896Z,7.59
2023-04-06T09:21:13.050Z,8.29
2023-04-06T09:24:26.182Z,8.94
2023-04-06T09:27:35.135Z,8.38
2023-04-06T09:30:50.636Z,8.69
2023-04-06T09:33:57.947Z,7.78
2023-04-06T09:37:15.094Z,8.59
2023-04-06T09:40:23.353Z,8.54
2023-04-06T09:43:31.868Z,8.78
2023-04-06T09:46:54.986Z,8.98
2023-04-06T09:50:06.111Z,9.22
2023-04-06T09:53:13.074Z,9.71
2023-04-06T09:56:26.187Z,9.64
2023-04-06T09:59:44.689Z,9.73
2023-04-06T10:02:57.754Z,9.87
2023-04-06T10:06:07.809Z,10.19
2023-04-06T10:09:15.479Z,10.40
2023-04-06T10:12:22.771Z,10.41
2023-04-06T10:15:31.345Z,10.17
2023-04-06T10:18:37.809Z,10.80
2023-04-06T10:21:47.805Z,9.65
2023-04-06T10:24:54.324Z,8.96
2023-04-06T10:28:07.175Z,9.64
2023-04-06T10:31:15.178Z,10.24
2023-04-06T10:34:21.665Z,11.11
2023-04-06T10:37:27.742Z,10.53
2023-04-06T10:40:34.114Z,10.78
2023-04-06T10:43:41.939Z,10.55
2023-04-06T10:46:57.728Z,11.69
2023-04-06T10:50:04.492Z,10.59
2023-04-06T10:53:10.857Z,11.34
2023-04-06T10:56:18.411Z,11.43
2023-04-06T10:59:26.515Z,10.98
2023-04-06T11:02:34.563Z,10.69
2023-04-06T11:05:41.446Z,11.68
2023-04-06T11:08:47.869Z,11.51
2023-04-06T11:11:54.233Z,11.29
2023-04-06T11:15:05.339Z,11.79
2023-04-06T11:18:13.137Z,10.41
2023-04-06T11:21:20.022Z,10.69
2023-04-06T11:24:26.731Z,11.62
2023-04-06T11:27:33.575Z,10.75
2023-04-06T11:30:40.015Z,11.27
2023-04-06T11:33:48.114Z,11.62
2023-04-06T11:36:58.230Z,11.23
2023-04-06T11:40:05.022Z,11.22
2023-04-06T11:43:13.858Z,10.55
2023-04-06T11:46:21.549Z,11.28
2023-04-06T11:49:31.266Z,11.34
2023-04-06T11:52:37.725Z,10.92
2023-04-06T11:55:46.265Z,11.76
2023-04-06T11:58:52.815Z,11.37
2023-04-06T12:01:59.528Z,10.78
2023-04-06T12:05:09.648Z,10.70
2023-04-06T12:08:15.989Z,11.22
2023-04-06T12:11:22.986Z,10.88
2023-04-06T12:14:29.373Z,11.92
2023-04-06T12:17:35.911Z,11.10
2023-04-06T12:20:43.647Z,11.02
2023-04-06T12:23:50.040Z,11.15
2023-04-06T12:27:06.937Z,11.00
2023-04-06T12:30:16.271Z,10.80
2023-04-06T12:33:23.059Z,11.33
2023-04-06T12:36:30.687Z,11.63
2023-04-06T12:39:37.012Z,11.59
2023-04-06T12:42:43.283Z,11.77
2023-04-06T12:45:49.597Z,12.45
2023-04-06T12:48:56.288Z,10.57
2023-04-06T12:52:04.681Z,10.96
2023-04-06T12:55:11.804Z,10.28
2023-04-06T12:58:18.219Z,10.05
2023-04-06T13:01:24.591Z,10.92
2023-04-06T13:04:31.033Z,11.14
2023-04-06T13:07:38.836Z,11.11
2023-04-06T13:10:46.161Z,11.11
2023-04-06T13:13:52.553Z,10.35
2023-04-06T13:16:58.651Z,10.65
2023-04-06T13:20:06.109Z,10.70
2023-04-06T13:23:14.125Z,10.00
2023-04-06T13:26:20.325Z,11.09
2023-04-06T13:29:27.137Z,11.11
2023-04-06T13:32:34.929Z,10.51
2023-04-06T13:35:41.378Z,11.67
2023-04-06T13:38:49.455Z,9.99
2023-04-06T13:41:56.520Z,9.77
2023-04-06T13:45:03.228Z,9.81
2023-04-06T13:48:09.520Z,9.09
2023-04-06T13:51:16.918Z,8.91
2023-04-06T13:54:24.470Z,9.32
2023-04-06T13:57:30.954Z,10.16
2023-04-06T14:00:37.969Z,9.76
2023-04-06T14:03:46.651Z,10.27
2023-04-06T14:06:53.854Z,10.39
2023-04-06T14:10:01.558Z,9.71
2023-04-06T14:13:07.806Z,10.55
2023-04-06T14:16:13.983Z,11.36
2023-04-06T14:19:20.513Z,10.26
2023-04-06T14:22:26.604Z,11.17
2023-04-06T14:25:35.949Z,11.05
2023-04-06T14:28:42.375Z,12.66
2023-04-06T14:31:50.439Z,10.98
2023-04-06T14:34:57.069Z,12.76
2023-04-06T14:38:03.506Z,11.47
2023-04-06T14:41:11.730Z,11.13
2023-04-06T14:44:18.349Z,11.86
2023-04-06T14:47:24.853Z,10.05
2023-04-06T14:50:31.396Z,10.61
2023-04-06T14:53:37.505Z,9.58
2023-04-06T14:56:45.475Z,10.28
2023-04-06T14:59:54.821Z,9.19
2023-04-06T15:03:01.150Z,8.95
2023-04-06T15:06:08.535Z,8.83
2023-04-06T15:09:14.938Z,8.44
2023-04-06T15:12:22.793Z,8.65
2023-04-06T15:15:29.168Z,9.13
2023-04-06T15:18:36.039Z,8.52
2023-04-06T15:21:42.262Z,8.33
2023-04-06T15:24:48.443Z,8.48
2023-04-06T15:27:56.238Z,7.93
2023-04-06T15:31:07.166Z,8.20
2023-04-06T15:34:13.506Z,7.67
2023-04-06T15:37:20.437Z,7.62
2023-04-06T15:40:27.418Z,8.42
2023-04-06T15:43:35.532Z,8.08
2023-04-06T15:46:41.686Z,8.05
2023-04-06T15:49:48.233Z,7.82
2023-04-06T15:52:54.437Z,7.58
2023-04-06T15:56:01.799Z,7.34
2023-04-06T15:59:09.952Z,7.44
2023-04-06T16:02:16.721Z,6.85
2023-04-06T16:05:23.439Z,7.16
2023-04-06T16:08:29.648Z,6.94
2023-04-06T16:11:37.153Z,6.60
2023-04-06T16:14:44.963Z,6.83
2023-04-06T16:17:51.820Z,6.41
2023-04-06T16:20:58.273Z,6.38
2023-04-06T16:24:05.471Z,6.32
2023-04-06T16:27:12.348Z,5.84
2023-04-06T16:30:20.715Z,5.88
2023-04-06T16:33:26.896Z,5.54
2023-04-06T16:36:33.994Z,5.59
2023-04-06T16:39:40.383Z,5.59
2023-04-06T16:42:48.473Z,5.37
2023-04-06T16:45:56.051Z,5.45
2023-04-06T16:49:03.331Z,5.14
2023-04-06T16:52:09.521Z,5.25
2023-04-06T16:55:15.695Z,5.27
2023-04-06T16:58:22.035Z,5.34
2023-04-06T17:01:30.678Z,5.08
2023-04-06T17:04:37.783Z,4.84
2023-04-06T17:07:44.405Z,4.78
2023-04-06T17:10:59.280Z,4.79
2023-04-06T17:14:11.029Z,4.69
2023-04-06T17:17:19.011Z,4.67
2023-04-06T17:20:25.733Z,4.41
2023-04-06T17:23:32.401Z,4.72
2023-04-06T17:26:38.930Z,4.76
2023-04-06T17:29:45.369Z,4.57
2023-04-06T17:32:53.523Z,4.47
2023-04-06T17:36:00.135Z,4.57
2023-04-06T17:39:06.732Z,4.43
2023-04-06T17:42:13.662Z,4.39
2023-04-06T17:45:19.961Z,4.62
2023-04-06T17:48:29.445Z,4.34
2023-04-06T17:51:35.752Z,4.33
2023-04-06T17:54:41.950Z,4.37
2023-04-06T17:57:48.090Z,4.36
2023-04-06T18:00:54.504Z,4.40
2023-04-06T18:04:02.086Z,4.51
2023-04-06T18:07:08.716Z,4.45
2023-04-06T18:10:15.076Z,4.46
2023-04-06T18:13:21.461Z,4.38
2023-04-06T18:16:28.611Z,4.59
2023-04-06T18:19:36.467Z,4.57
2023-04-06T18:22:43.329Z,4.38
2023-04-06T18:25:49.791Z,4.41
2023-04-06T18:28:56.266Z,4.30
2023-04-06T18:32:02.587Z,4.28
2023-04-06T18:35:11.466Z,4.30
2023-04-06T18:38:17.741Z,4.28
2023-04-06T18:41:24.735Z,4.34
2023-04-06T18:44:31.661Z,4.34
2023-04-06T18:47:38.198Z,4.42
2023-04-06T18:50:54.980Z,4.22
2023-04-06T18:54:02.462Z,4.11
2023-04-06T18:57:08.437Z,4.07
2023-04-06T19:00:15.884Z,4.23
2023-04-06T19:03:22.497Z,4.38
2023-04-06T19:06:31.328Z,4.21
2023-04-06T19:09:37.609Z,4.22
2023-04-06T19:12:44.212Z,4.22
2023-04-06T19:15:50.827Z,3.82
2023-04-06T19:18:57.626Z,3.94
2023-04-06T19:22:05.656Z,4.11
2023-04-06T19:25:12.716Z,3.79
2023-04-06T19:28:19.077Z,3.88
2023-04-06T19:31:27.209Z,3.85
2023-04-06T19:34:33.674Z,3.92
2023-04-06T19:37:41.436Z,3.79
2023-04-06T19:40:47.769Z,3.69
2023-04-06T19:43:54.440Z,3.88
2023-04-06T19:47:00.725Z,3.62
2023-04-06T19:50:10.486Z,3.75
2023-04-06T19:53:18.431Z,3.47
2023-04-06T19:56:24.971Z,3.51
2023-04-06T19:59:31.399Z,3.48
2023-04-06T20:02:37.657Z,3.47
2023-04-06T20:05:44.071Z,3.52
2023-04-06T20:08:51.844Z,3.26
2023-04-06T20:11:58.368Z,3.30
2023-04-06T20:15:05.038Z,3.48
2023-04-06T20:18:11.592Z,3.26
2023-04-06T20:21:18.077Z,3.30
2023-04-06T20:24:25.673Z,3.21
2023-04-06T20:27:32.184Z,3.25
2023-04-06T20:30:38.323Z,3.26
2023-04-06T20:33:44.383Z,3.23
2023-04-06T20:36:50.664Z,3.26
2023-04-06T20:39:59.280Z,3.03
2023-04-06T20:43:06.056Z,3.03
2023-04-06T20:46:17.185Z,3.20
2023-04-06T20:49:24.216Z,3.04
2023-04-06T20:52:30.614Z,3.20
2023-04-06T20:55:41.578Z,3.16
2023-04-06T20:58:47.791Z,3.11
2023-04-06T21:01:54.065Z,3.03
2023-04-06T21:05:00.225Z,3.19
2023-04-06T21:08:06.776Z,3.01
2023-04-06T21:11:14.375Z,3.14
2023-04-06T21:14:21.228Z,3.09
2023-04-06T21:17:27.671Z,2.92
2023-04-06T21:20:35.133Z,2.91
2023-04-06T21:23:41.610Z,2.85
2023-04-06T21:26:49.447Z,2.63
2023-04-06T21:29:56.230Z,2.67
2023-04-06T21:33:02.749Z,2.61
2023-04-06T21:36:09.954Z,2.48
2023-04-06T21:39:16.552Z,2.43
2023-04-06T21:42:24.395Z,2.49
2023-04-06T21:45:31.270Z,2.48
2023-04-06T21:48:38.315Z,2.22
2023-04-06T21:51:44.843Z,2.18
2023-04-06T21:54:51.482Z,2.47
2023-04-06T21:57:59.359Z,2.23
2023-04-06T22:01:11.370Z,2.25
2023-04-06T22:04:17.958Z,2.23
2023-04-06T22:07:24.554Z,2.14
2023-04-06T22:10:31.568Z,2.20
2023-04-06T22:13:40.375Z,2.16
2023-04-06T22:16:46.787Z,2.17
2023-04-06T22:19:53.054Z,2.26
2023-04-06T22:22:59.221Z,2.07
2023-04-06T22:26:05.366Z,2.25
2023-04-06T22:29:13.180Z,2.05
2023-04-06T22:32:19.908Z,2.07
2023-04-06T22:35:26.826Z,2.08
2023-04-06T22:38:33.276Z,2.22
2023-04-06T22:41:39.630Z,2.26
2023-04-06T22:44:47.216Z,2.08
2023-04-06T22:47:53.820Z,1.98
2023-04-06T22:51:00.468Z,2.06
2023-04-06T22:54:06.708Z,1.83
2023-04-06T22:57:13.047Z,1.88
2023-04-06T23:00:20.911Z,2.01
2023-04-06T23:03:27.365Z,2.03
2023-04-06T23:06:34.037Z,2.30
2023-04-06T23:09:41.236Z,2.27
2023-04-06T23:12:48.389Z,2.14
2023-04-06T23:15:56.524Z,2.07
2023-04-06T23:19:02.756Z,2.07
2023-04-06T23:22:09.254Z,2.24
2023-04-06T23:25:15.787Z,2.15
2023-04-06T23:28:22.438Z,1.98
2023-04-06T23:31:30.151Z,2.04
2023-04-06T23:34:36.719Z,1.90
2023-04-06T23:37:43.219Z,2.01
2023-04-06T23:40:49.561Z,2.17
2023-04-06T23:43:56.887Z,2.06
2023-04-06T23:47:04.454Z,1.95
2023-04-06T23:50:11.227Z,2.16
2023-04-06T23:53:17.398Z,1.91
2023-04-06T23:56:23.725Z,1.90
2023-04-06T23:59:29.850Z,2.05
